Time;durP1;ratioP1;P1;durP2;ratioP2;P2;SDS_P1;SDS_P2;PMS_P1;PMS_P2;Temp;Humidity;BMP_temperature;BMP_pressure;BME280_temperature;BME280_humidity;BME280_pressure;Samples;Min_cycle;Max_cycle;Signal;HPM_P1;HPM_P2
2021/06/11 00:00:21;;;;;;;6.85;6.15;;;;;;;15.38;100.00;95835.91;1006190;29;20061;-81
2021/06/11 00:00:52;;;;;;;7.47;6.63;;;;;;;15.16;100.00;95814.75;1009781;29;20018;-80
2021/06/11 00:01:23;;;;;;;9.00;5.55;;;;;;;15.07;100.00;95799.97;1005140;29;20362;-80
2021/06/11 00:01:54;;;;;;;7.53;6.35;;;;;;;15.04;100.00;95792.34;1004820;29;20563;-80
2021/06/11 00:02:24;;;;;;;8.38;6.07;;;;;;;15.26;100.00;95828.53;1001218;29;20015;-80
2021/06/11 00:02:55;;;;;;;9.35;6.43;;;;;;;15.32;100.00;95834.06;1005368;29;20105;-80
2021/06/11 00:03:25;;;;;;;7.25;6.25;;;;;;;15.31;100.00;95824.38;1008670;29;20459;-81
2021/06/11 00:03:56;;;;;;;7.47;6.15;;;;;;;15.28;100.00;95825.66;1004602;29;20105;-80
2021/06/11 00:04:26;;;;;;;8.23;6.15;;;;;;;15.44;100.00;95832.41;1001279;29;20113;-80
2021/06/11 00:04:57;;;;;;;7.80;5.63;;;;;;;15.47;100.00;95837.34;1001166;29;20025;-81
2021/06/11 00:05:28;;;;;;;7.10;6.28;;;;;;;15.30;100.00;95815.56;1005082;29;20116;-81
2021/06/11 00:05:58;;;;;;;7.28;5.90;;;;;;;15.26;100.00;95839.22;1009020;29;20570;-80
2021/06/11 00:06:31;;;;;;;8.50;5.63;;;;;;;15.25;100.00;95840.25;1012708;29;20115;-80
2021/06/11 00:07:01;;;;;;;7.38;5.95;;;;;;;15.20;100.00;95832.03;1004982;29;20069;-80
2021/06/11 00:07:33;;;;;;;8.05;6.15;;;;;;;15.33;100.00;95841.09;1009001;29;20021;-80
2021/06/11 00:08:04;;;;;;;8.70;6.13;;;;;;;15.27;100.00;95848.06;1005094;29;20024;-80
2021/06/11 00:08:35;;;;;;;7.47;6.13;;;;;;;15.17;100.00;95834.28;1013044;29;20105;-80
2021/06/11 00:09:07;;;;;;;8.77;6.43;;;;;;;15.24;100.00;95841.28;1001428;29;20129;-80
2021/06/11 00:09:37;;;;;;;7.88;5.57;;;;;;;15.26;100.00;95833.06;1009407;29;20017;-83
2021/06/11 00:10:10;;;;;;;8.00;6.13;;;;;;;15.28;100.00;95845.19;1005248;29;20022;-82
2021/06/11 00:10:41;;;;;;;9.57;6.53;;;;;;;15.27;100.00;95838.22;1009268;29;20021;-82
2021/06/11 00:11:11;;;;;;;7.63;6.03;;;;;;;15.27;100.00;95832.00;1005269;29;20020;-82
2021/06/11 00:11:42;;;;;;;6.65;5.57;;;;;;;15.27;100.00;95832.84;1005386;29;20112;-80
2021/06/11 00:12:14;;;;;;;10.10;6.72;;;;;;;15.21;100.00;95828.31;1009050;29;20096;-82
2021/06/11 00:12:44;;;;;;;7.57;6.25;;;;;;;15.25;100.00;95842.91;1002218;29;20060;-80
2021/06/11 00:13:15;;;;;;;8.52;5.93;;;;;;;15.30;100.00;95841.50;1006273;29;20035;-82
2021/06/11 00:13:45;;;;;;;7.45;6.65;;;;;;;15.36;100.00;95846.84;1003887;29;20368;-82
2021/06/11 00:14:16;;;;;;;8.77;6.10;;;;;;;15.22;100.00;95821.97;1009292;29;20025;-82
2021/06/11 00:14:47;;;;;;;7.18;6.10;;;;;;;15.11;100.00;95793.16;1005077;29;20048;-83
2021/06/11 00:15:18;;;;;;;7.05;6.25;;;;;;;15.33;100.00;95825.84;1001199;29;20036;-82
2021/06/11 00:15:48;;;;;;;9.30;6.22;;;;;;;15.31;100.00;95824.38;997325;29;20037;-81
2021/06/11 00:16:19;;;;;;;8.25;6.97;;;;;;;15.20;100.00;95820.50;1008695;29;20565;-80
2021/06/11 00:16:50;;;;;;;10.02;6.20;;;;;;;15.13;100.00;95831.22;1008827;29;20057;-82
2021/06/11 00:17:20;;;;;;;8.13;5.95;;;;;;;15.17;100.00;95837.81;1000718;29;20025;-83
2021/06/11 00:17:51;;;;;;;6.60;5.90;;;;;;;15.17;100.00;95837.81;1004989;29;20147;-83
2021/06/11 00:18:21;;;;;;;9.45;5.93;;;;;;;15.15;100.00;95839.88;1008462;29;20025;-83
2021/06/11 00:18:52;;;;;;;8.27;6.03;;;;;;;15.17;100.00;95826.25;1001144;29;20113;-84
2021/06/11 00:19:23;;;;;;;7.25;6.32;;;;;;;15.08;100.00;95825.66;1004816;29;20041;-80
2021/06/11 00:19:53;;;;;;;8.05;6.07;;;;;;;15.13;100.00;95825.84;1012359;29;20025;-82
2021/06/11 00:20:24;;;;;;;7.30;6.40;;;;;;;15.24;100.00;95843.97;1004841;29;20472;-83
2021/06/11 00:20:55;;;;;;;7.80;6.28;;;;;;;15.09;100.00;95809.41;1004803;29;20123;-82
2021/06/11 00:21:25;;;;;;;6.78;5.75;;;;;;;15.14;100.00;95824.03;1004699;29;20133;-82
2021/06/11 00:21:56;;;;;;;6.82;5.95;;;;;;;15.25;100.00;95829.53;1005023;29;20044;-82
2021/06/11 00:22:27;;;;;;;8.23;6.40;;;;;;;15.20;100.00;95834.69;1005245;29;20116;-81
2021/06/11 00:23:30;;;;;;;7.90;6.30;;;;;;;15.16;100.00;95838.00;1001964;29;20057;-84
2021/06/11 00:24:35;;;;;;;8.32;6.43;;;;;;;15.16;100.00;95836.16;1002344;29;20054;-81
2021/06/11 00:25:07;;;;;;;8.10;6.50;;;;;;;15.20;100.00;95840.03;1001013;29;20026;-81
2021/06/11 00:25:38;;;;;;;7.95;6.53;;;;;;;15.11;100.00;95825.25;997598;29;20022;-81
2021/06/11 00:26:08;;;;;;;7.68;6.32;;;;;;;15.00;100.00;95807.97;1001267;29;20104;-88
2021/06/11 00:26:39;;;;;;;8.38;6.55;;;;;;;15.13;100.00;95827.72;1004977;29;20022;-82
2021/06/11 00:27:10;;;;;;;8.27;6.18;;;;;;;15.16;100.00;95836.16;1005077;29;20050;-83
2021/06/11 00:27:40;;;;;;;7.28;6.28;;;;;;;15.19;100.00;95829.56;1001494;29;20021;-81
2021/06/11 00:28:11;;;;;;;7.53;5.97;;;;;;;15.11;100.00;95827.13;1004860;29;20062;-82
2021/06/11 00:28:41;;;;;;;7.47;6.68;;;;;;;14.96;100.00;95800.56;1004794;29;20097;-82
2021/06/11 00:29:12;;;;;;;8.02;6.57;;;;;;;15.17;100.00;95828.94;1005200;29;20026;-82
2021/06/11 00:29:43;;;;;;;7.97;6.50;;;;;;;15.10;100.00;95826.28;997845;29;20128;-81
2021/06/11 00:30:15;;;;;;;7.28;6.45;;;;;;;15.11;100.00;95822.56;1001157;29;20089;-83
2021/06/11 00:30:46;;;;;;;8.90;6.97;;;;;;;15.21;100.00;95827.50;1001048;29;20081;-82
2021/06/11 00:31:16;;;;;;;8.18;6.57;;;;;;;15.21;100.00;95816.81;1005275;29;20100;-81
2021/06/11 00:31:47;;;;;;;7.32;6.53;;;;;;;15.03;100.00;95788.84;1005264;29;20056;-82
2021/06/11 00:32:17;;;;;;;8.82;6.07;;;;;;;15.31;100.00;95813.69;998027;29;20026;-81
2021/06/11 00:32:48;;;;;;;8.30;5.78;;;;;;;15.34;100.00;95821.31;1008899;29;20035;-82
2021/06/11 00:33:19;;;;;;;9.10;6.20;;;;;;;15.24;100.00;95801.16;1001421;29;20163;-82
2021/06/11 00:33:50;;;;;;;7.07;5.95;;;;;;;15.32;100.00;95818.03;1001165;29;20105;-82
2021/06/11 00:34:20;;;;;;;7.80;6.05;;;;;;;15.30;100.00;95804.84;1000754;29;20032;-82
2021/06/11 00:34:51;;;;;;;5.93;5.25;;;;;;;15.41;100.00;95827.47;1001118;29;20473;-82
2021/06/11 00:35:21;;;;;;;5.95;5.35;;;;;;;15.35;100.00;95802.38;997193;29;20086;-81
2021/06/11 00:35:53;;;;;;;7.20;6.00;;;;;;;15.47;100.00;95826.63;1000885;29;20025;-81
2021/06/11 00:36:23;;;;;;;7.38;5.18;;;;;;;15.39;100.00;95808.94;997340;29;20033;-80
2021/06/11 00:36:54;;;;;;;7.93;5.50;;;;;;;15.45;100.00;95824.16;1000941;29;20113;-81
2021/06/11 00:37:25;;;;;;;6.75;6.05;;;;;;;15.44;100.00;95821.69;1001067;29;20655;-80
2021/06/11 00:37:55;;;;;;;7.53;6.15;;;;;;;15.45;100.00;95823.34;997246;29;20122;-81
2021/06/11 00:38:26;;;;;;;7.00;5.97;;;;;;;15.22;100.00;95792.53;997123;29;20117;-80
2021/06/11 00:38:56;;;;;;;6.93;6.22;;;;;;;15.37;100.00;95818.22;1000839;29;20125;-81
2021/06/11 00:39:27;;;;;;;7.72;6.18;;;;;;;15.40;100.00;95821.28;1000918;29;20166;-81
2021/06/11 00:39:58;;;;;;;8.00;6.38;;;;;;;15.17;100.00;95820.91;997097;29;20125;-80
2021/06/11 00:40:29;;;;;;;8.32;6.05;;;;;;;15.00;100.00;95826.69;993452;29;20071;-80
2021/06/11 00:40:59;;;;;;;7.88;6.38;;;;;;;15.00;100.00;95831.25;997206;29;20562;-82
2021/06/11 00:41:30;;;;;;;7.40;5.85;;;;;;;14.87;100.00;95806.16;1004762;29;20072;-81
2021/06/11 00:42:01;;;;;;;9.23;5.95;;;;;;;15.03;100.00;95820.09;1000853;29;20552;-81
2021/06/11 00:42:33;;;;;;;6.30;5.70;;;;;;;14.96;100.00;95809.44;993948;29;20035;-81
2021/06/11 00:43:03;;;;;;;8.07;6.20;;;;;;;15.14;100.00;95830.19;1001134;29;20033;-82
2021/06/11 00:43:34;;;;;;;6.93;6.00;;;;;;;15.19;100.00;95834.94;997580;29;20133;-82
2021/06/11 00:44:05;;;;;;;9.20;6.35;;;;;;;15.11;100.00;95830.59;1001211;29;20117;-82
2021/06/11 00:44:35;;;;;;;6.63;5.95;;;;;;;14.99;100.00;95821.56;1004929;29;20120;-82
2021/06/11 00:45:08;;;;;;;6.80;6.10;;;;;;;14.99;100.00;95827.72;1004796;29;20029;-81
2021/06/11 00:45:42;;;;;;;6.65;5.85;;;;;;;14.97;100.00;95831.66;1005109;29;20033;-82
2021/06/11 00:46:13;;;;;;;8.10;6.40;;;;;;;14.97;100.00;95818.28;1008922;29;20025;-81
2021/06/11 00:46:44;;;;;;;6.82;6.05;;;;;;;15.02;100.00;95821.97;1005321;29;20025;-81
2021/06/11 00:47:14;;;;;;;7.75;5.63;;;;;;;14.74;100.00;95771.38;997371;29;20030;-82
2021/06/11 00:47:45;;;;;;;7.88;5.93;;;;;;;15.09;100.00;95830.00;1008042;29;20043;-82
2021/06/11 00:48:16;;;;;;;7.30;6.30;;;;;;;15.13;100.00;95827.72;1001266;29;20033;-82
2021/06/11 00:48:47;;;;;;;8.27;6.65;;;;;;;15.15;100.00;95845.22;1008830;29;20033;-82
2021/06/11 00:49:18;;;;;;;7.53;5.80;;;;;;;15.07;100.00;95824.03;1004913;29;20472;-83
2021/06/11 00:49:50;;;;;;;8.65;6.18;;;;;;;15.20;100.00;95841.91;997399;29;20034;-80
2021/06/11 00:50:25;;;;;;;8.30;6.10;;;;;;;15.13;100.00;95822.38;1001107;29;20034;-80
2021/06/11 00:50:55;;;;;;;7.05;5.90;;;;;;;15.12;100.00;95824.22;1005219;29;20033;-80
2021/06/11 00:51:26;;;;;;;8.15;6.38;;;;;;;15.10;100.00;95820.94;1001096;29;20120;-80
2021/06/11 00:51:56;;;;;;;7.07;6.32;;;;;;;15.18;100.00;95834.09;1001327;29;20124;-80
2021/06/11 00:52:27;;;;;;;8.30;6.30;;;;;;;15.12;100.00;95823.38;993666;29;20026;-80
2021/06/11 00:52:58;;;;;;;9.90;6.10;;;;;;;15.09;100.00;95813.94;1001422;29;20124;-81
2021/06/11 00:53:28;;;;;;;6.75;5.75;;;;;;;15.12;100.00;95837.59;997746;29;20065;-83
2021/06/11 00:53:59;;;;;;;8.77;6.28;;;;;;;15.07;100.00;95834.72;997381;29;20121;-82
2021/06/11 00:54:29;;;;;;;9.75;6.80;;;;;;;15.10;100.00;95831.66;997584;29;20121;-82
2021/06/11 00:55:00;;;;;;;8.60;6.40;;;;;;;14.92;100.00;95820.75;1001363;29;20112;-80
2021/06/11 00:55:31;;;;;;;9.40;6.25;;;;;;;14.97;100.00;95816.41;1005082;29;20030;-80
2021/06/11 00:56:01;;;;;;;8.95;6.47;;;;;;;14.98;100.00;95822.56;1001067;29;20174;-82
2021/06/11 00:56:32;;;;;;;8.18;6.13;;;;;;;14.94;100.00;95816.00;1005253;29;20474;-81
2021/06/11 00:57:03;;;;;;;8.40;6.30;;;;;;;14.97;100.00;95807.56;1001554;29;20072;-81
2021/06/11 00:57:34;;;;;;;6.38;5.35;;;;;;;14.95;100.00;95806.97;1001237;29;20109;-80
2021/06/11 00:58:04;;;;;;;9.18;6.18;;;;;;;14.93;100.00;95806.34;1004885;29;20422;-80
2021/06/11 00:58:35;;;;;;;6.63;5.85;;;;;;;14.98;100.00;95817.22;1005161;29;20378;-79
2021/06/11 00:59:05;;;;;;;6.82;6.00;;;;;;;14.90;100.00;95820.94;1004892;29;20170;-81
2021/06/11 00:59:36;;;;;;;7.50;6.45;;;;;;;14.73;100.00;95788.44;997449;29;20040;-78
2021/06/11 01:00:07;;;;;;;7.32;6.20;;;;;;;14.93;100.00;95815.19;993450;29;20105;-81
2021/06/11 01:00:38;;;;;;;7.60;6.40;;;;;;;14.84;100.00;95798.53;1004898;29;20031;-81
2021/06/11 01:01:09;;;;;;;8.55;6.50;;;;;;;14.91;100.00;95811.91;1005120;29;20029;-81
2021/06/11 01:01:41;;;;;;;7.35;6.35;;;;;;;14.95;100.00;95817.66;1001242;29;20098;-81
2021/06/11 01:02:15;;;;;;;8.68;6.07;;;;;;;14.92;100.00;95808.19;997416;29;20501;-81
2021/06/11 01:02:46;;;;;;;8.25;6.28;;;;;;;14.93;100.00;95817.06;1005366;29;20036;-82
2021/06/11 01:03:18;;;;;;;8.52;6.20;;;;;;;14.83;100.00;95799.56;1005247;29;20052;-81
2021/06/11 01:03:48;;;;;;;8.93;6.47;;;;;;;14.87;100.00;95821.34;1004897;29;20124;-82
2021/06/11 01:04:19;;;;;;;7.05;5.75;;;;;;;14.90;100.00;95827.09;1005362;29;20088;-80
2021/06/11 01:04:50;;;;;;;7.75;5.75;;;;;;;14.87;100.00;95805.31;1001259;29;20455;-79
2021/06/11 01:05:20;;;;;;;7.57;6.15;;;;;;;14.81;100.00;95798.94;993932;29;20517;-80
2021/06/11 01:05:51;;;;;;;8.25;6.78;;;;;;;14.95;100.00;95804.28;1001143;29;20125;-80
2021/06/11 01:06:22;;;;;;;6.78;6.07;;;;;;;15.02;100.00;95813.13;997566;29;20591;-79
2021/06/11 01:06:53;;;;;;;6.80;5.78;;;;;;;14.95;100.00;95796.28;994098;29;20196;-80
2021/06/11 01:07:24;;;;;;;6.53;5.82;;;;;;;15.15;100.00;95822.97;1001297;29;20529;-80
2021/06/11 01:07:55;;;;;;;7.15;5.85;;;;;;;15.14;100.00;95821.34;1001173;29;20037;-80
2021/06/11 01:08:25;;;;;;;7.63;6.68;;;;;;;15.13;100.00;95825.84;1001527;29;20030;-82
2021/06/11 01:08:56;;;;;;;8.70;5.72;;;;;;;15.04;100.00;95805.72;1001501;29;20549;-82
2021/06/11 01:09:27;;;;;;;7.93;6.28;;;;;;;15.11;100.00;95806.53;1006868;29;20040;-80
2021/06/11 01:09:57;;;;;;;6.55;5.55;;;;;;;15.17;100.00;95826.25;1001709;29;20128;-80
2021/06/11 01:10:28;;;;;;;8.07;6.05;;;;;;;15.24;100.00;95821.75;1006615;29;20108;-83
2021/06/11 01:10:59;;;;;;;6.85;5.53;;;;;;;15.21;100.00;95801.56;1003278;29;20040;-83
2021/06/11 01:11:29;;;;;;;8.50;5.72;;;;;;;15.35;100.00;95820.28;1003087;29;20030;-81
2021/06/11 01:12:00;;;;;;;8.82;6.47;;;;;;;15.28;100.00;95802.38;1008726;29;20029;-82
2021/06/11 01:12:31;;;;;;;9.40;6.10;;;;;;;15.34;100.00;95813.28;1004813;29;20025;-80
2021/06/11 01:13:02;;;;;;;7.93;5.95;;;;;;;15.33;100.00;95803.63;1004756;29;20022;-80
2021/06/11 01:13:32;;;;;;;6.40;5.72;;;;;;;15.36;100.00;95813.88;1001375;29;20113;-81
2021/06/11 01:14:04;;;;;;;8.63;6.10;;;;;;;15.41;100.00;95808.72;997336;29;20117;-82
2021/06/11 01:14:35;;;;;;;9.32;6.28;;;;;;;15.33;100.00;95800.94;1005424;29;20021;-80
2021/06/11 01:15:06;;;;;;;8.98;6.40;;;;;;;15.32;100.00;95797.44;997483;29;20030;-81
2021/06/11 01:15:37;;;;;;;7.97;6.03;;;;;;;15.39;100.00;95808.13;997847;29;20171;-80
2021/06/11 01:16:08;;;;;;;7.97;6.28;;;;;;;15.39;100.00;95810.81;1001808;29;20013;-81
2021/06/11 01:16:38;;;;;;;7.60;5.85;;;;;;;15.43;100.00;95814.69;1005588;29;20085;-80
2021/06/11 01:17:10;;;;;;;10.75;6.50;;;;;;;15.42;100.00;95815.75;997721;29;20022;-81
2021/06/11 01:17:40;;;;;;;9.35;6.57;;;;;;;15.45;100.00;95823.34;1001591;29;20029;-80
2021/06/11 01:18:12;;;;;;;7.32;5.68;;;;;;;15.42;100.00;95816.56;1008999;29;20085;-80
2021/06/11 01:18:43;;;;;;;7.68;6.30;;;;;;;15.42;100.00;95810.38;997547;29;20026;-80
2021/06/11 01:19:13;;;;;;;6.10;5.50;;;;;;;15.42;100.00;95823.75;997838;29;20046;-80
2021/06/11 01:19:46;;;;;;;6.47;5.88;;;;;;;15.38;100.00;95817.16;997745;29;20098;-81
2021/06/11 01:20:17;;;;;;;8.07;5.97;;;;;;;15.30;100.00;95809.38;1001358;29;20565;-81
2021/06/11 01:20:48;;;;;;;9.13;5.85;;;;;;;15.39;100.00;95818.81;1005302;29;20058;-79
2021/06/11 01:21:18;;;;;;;7.18;6.00;;;;;;;15.27;100.00;95794.56;1005336;29;20017;-80
2021/06/11 01:21:51;;;;;;;7.60;6.35;;;;;;;15.32;100.00;95818.84;1005383;29;20044;-81
2021/06/11 01:22:37;;;;;;;7.88;5.75;;;;;;;15.36;100.00;95814.72;1001423;29;20437;-80
2021/06/11 01:23:19;;;;;;;8.40;6.50;;;;;;;15.41;100.00;95822.09;997949;29;20019;-81
2021/06/11 01:24:19;;;;;;;8.85;6.50;;;;;;;15.45;100.00;95821.50;1001665;29;20117;-80
2021/06/11 01:25:04;;;;;;;8.23;5.85;;;;;;;15.24;100.00;95801.16;1003707;29;20046;-81
2021/06/11 01:25:51;;;;;;;6.85;6.10;;;;;;;15.26;100.00;95809.78;1001486;29;20036;-81
2021/06/11 01:26:42;;;;;;;6.68;5.93;;;;;;;15.36;100.00;95814.72;997726;29;20101;-82
2021/06/11 01:27:13;;;;;;;8.05;6.38;;;;;;;15.33;100.00;95808.97;1002266;29;20425;-81
2021/06/11 01:27:45;;;;;;;8.50;6.45;;;;;;;15.44;100.00;95824.38;993622;29;20113;-81
2021/06/11 01:28:15;;;;;;;10.10;6.40;;;;;;;15.37;100.00;95804.84;1005047;29;20097;-81
2021/06/11 01:28:46;;;;;;;11.48;7.15;;;;;;;15.31;100.00;95800.31;1001192;29;20130;-82
2021/06/11 01:29:22;;;;;;;10.20;7.30;;;;;;;15.29;100.00;95813.91;993600;29;20094;-79
2021/06/11 01:29:56;;;;;;;11.32;7.10;;;;;;;15.37;100.00;95815.53;1000912;29;20038;-81
2021/06/11 01:30:27;;;;;;;10.40;7.45;;;;;;;15.33;100.00;95808.97;1000999;29;20022;-80
2021/06/11 01:30:57;;;;;;;8.00;7.15;;;;;;;15.37;100.00;95826.25;1000734;29;20121;-80
2021/06/11 01:31:30;;;;;;;8.93;6.18;;;;;;;15.34;100.00;95815.94;993326;29;20122;-80
2021/06/11 01:32:04;;;;;;;10.93;6.68;;;;;;;15.43;100.00;95815.53;993236;29;20434;-80
2021/06/11 01:32:35;;;;;;;7.60;6.32;;;;;;;15.35;100.00;95809.59;1000761;29;20068;-79
2021/06/11 01:33:06;;;;;;;8.15;6.80;;;;;;;15.26;100.00;95804.44;1000677;29;20030;-79
2021/06/11 01:33:37;;;;;;;8.80;7.30;;;;;;;15.31;100.00;95816.38;1004490;29;20362;-80
2021/06/11 01:34:14;;;;;;;7.65;6.35;;;;;;;15.18;100.00;95791.28;997207;29;20404;-80
2021/06/11 01:34:45;;;;;;;7.28;6.05;;;;;;;15.26;100.00;95801.78;1002073;29;20026;-82
2021/06/11 01:35:20;;;;;;;11.57;6.70;;;;;;;15.01;100.00;95757.97;1002660;29;20033;-81
2021/06/11 01:36:00;;;;;;;8.82;6.80;;;;;;;15.31;100.00;95803.81;998650;29;20038;-81
2021/06/11 01:36:36;;;;;;;8.23;6.63;;;;;;;15.25;100.00;95788.59;998523;29;20030;-82
2021/06/11 01:37:13;;;;;;;7.32;6.22;;;;;;;15.39;100.00;95813.47;994336;29;20139;-82
2021/06/11 01:37:44;;;;;;;7.10;6.35;;;;;;;15.34;100.00;95800.72;998009;29;20037;-82
2021/06/11 01:38:21;;;;;;;8.30;7.28;;;;;;;15.30;100.00;95788.78;1005119;29;20486;-82
2021/06/11 01:38:51;;;;;;;9.13;6.80;;;;;;;15.28;100.00;95791.69;1005566;29;20438;-83
2021/06/11 01:39:22;;;;;;;10.70;6.50;;;;;;;15.27;100.00;95784.69;998030;29;20034;-83
2021/06/11 01:39:54;;;;;;;9.25;6.82;;;;;;;15.27;100.00;95776.66;1005894;29;20462;-82
2021/06/11 01:40:25;;;;;;;8.55;6.13;;;;;;;15.34;100.00;95789.19;994375;29;20103;-83
2021/06/11 01:40:55;;;;;;;10.82;6.68;;;;;;;15.20;100.00;95757.09;1002823;29;20150;-84
2021/06/11 01:41:26;;;;;;;8.07;6.43;;;;;;;15.35;100.00;95786.31;994333;29;20060;-83
2021/06/11 01:41:57;;;;;;;9.50;6.82;;;;;;;15.03;100.00;95754.09;998614;29;20420;-81
2021/06/11 01:42:27;;;;;;;8.90;7.07;;;;;;;14.99;100.00;95754.69;998896;29;20026;-81
2021/06/11 01:43:01;;;;;;;7.65;6.82;;;;;;;15.09;100.00;95765.78;1002741;29;20457;-80
2021/06/11 01:43:31;;;;;;;8.48;7.53;;;;;;;15.22;100.00;95775.63;998509;29;20037;-83
2021/06/11 01:44:02;;;;;;;7.63;6.60;;;;;;;15.43;100.00;95807.50;998392;29;20034;-83
2021/06/11 01:44:33;;;;;;;9.75;6.65;;;;;;;15.49;100.00;95813.88;1002547;29;20101;-83
2021/06/11 01:45:09;;;;;;;8.00;6.55;;;;;;;15.37;100.00;95792.28;1006699;29;20021;-83
2021/06/11 01:45:40;;;;;;;9.35;6.30;;;;;;;15.38;100.00;95795.75;1006610;29;20029;-81
2021/06/11 01:46:12;;;;;;;8.07;6.53;;;;;;;15.19;100.00;95779.56;1003127;29;20022;-82
2021/06/11 01:46:43;;;;;;;9.00;6.40;;;;;;;15.40;100.00;95801.75;999001;29;20046;-82
2021/06/11 01:47:14;;;;;;;6.70;5.50;;;;;;;15.40;100.00;95791.84;998179;29;20061;-83
2021/06/11 01:47:46;;;;;;;7.43;6.43;;;;;;;15.42;100.00;95791.66;993628;29;20042;-83
2021/06/11 01:48:17;;;;;;;8.13;6.57;;;;;;;15.26;100.00;95767.00;1005157;29;20029;-84
2021/06/11 01:48:47;;;;;;;7.10;6.10;;;;;;;15.34;100.00;95776.63;1001222;29;20117;-82
2021/06/11 01:49:18;;;;;;;7.30;6.32;;;;;;;15.34;100.00;95783.84;993699;29;20031;-83
2021/06/11 01:49:48;;;;;;;7.40;6.57;;;;;;;15.22;100.00;95768.44;1005119;29;20066;-81
2021/06/11 01:50:24;;;;;;;9.30;6.80;;;;;;;15.44;100.00;95794.94;1005208;29;20031;-83
2021/06/11 01:50:55;;;;;;;9.85;6.82;;;;;;;15.20;100.00;95758.97;1001217;29;20075;-83
2021/06/11 01:51:26;;;;;;;8.68;6.90;;;;;;;15.45;100.00;95800.09;1009137;29;20077;-83
2021/06/11 01:51:57;;;;;;;8.27;6.47;;;;;;;15.35;100.00;95774.78;1000968;29;20128;-83
2021/06/11 01:52:28;;;;;;;8.43;6.47;;;;;;;15.42;100.00;95797.81;993468;29;20070;-83
2021/06/11 01:52:59;;;;;;;7.78;6.50;;;;;;;15.55;100.00;95804.16;1001055;29;20455;-81
2021/06/11 01:53:30;;;;;;;8.07;6.85;;;;;;;15.41;100.00;95781.97;997427;29;20030;-82
2021/06/11 01:54:01;;;;;;;8.63;7.10;;;;;;;15.57;100.00;95812.81;1004816;29;20574;-82
2021/06/11 01:54:31;;;;;;;9.90;6.18;;;;;;;15.48;100.00;95804.19;1004991;29;20022;-81
2021/06/11 01:55:03;;;;;;;9.85;6.57;;;;;;;15.26;100.00;95768.84;1000847;29;20378;-81
2021/06/11 01:55:33;;;;;;;7.38;5.93;;;;;;;15.33;100.00;95774.19;997615;29;20052;-83
2021/06/11 01:56:04;;;;;;;7.38;6.57;;;;;;;15.45;100.00;95791.25;1005104;29;20025;-82
2021/06/11 01:56:35;;;;;;;8.07;6.35;;;;;;;15.43;100.00;95790.59;1001520;29;20018;-82
2021/06/11 01:57:06;;;;;;;8.32;6.78;;;;;;;15.47;100.00;95781.13;1004926;29;20611;-81
2021/06/11 01:57:37;;;;;;;8.63;6.55;;;;;;;15.51;100.00;95795.72;997730;29;20022;-81
2021/06/11 01:58:07;;;;;;;7.78;6.55;;;;;;;15.55;100.00;95805.00;1001185;29;20017;-80
2021/06/11 01:58:39;;;;;;;8.15;6.38;;;;;;;15.39;100.00;95781.34;1005115;29;20021;-79
2021/06/11 01:59:10;;;;;;;8.70;6.68;;;;;;;15.47;100.00;95789.16;993938;29;20038;-80
2021/06/11 01:59:40;;;;;;;7.80;6.03;;;;;;;15.56;100.00;95803.94;997619;29;20029;-82
2021/06/11 02:00:13;;;;;;;9.23;6.43;;;;;;;15.53;100.00;95804.38;1001458;29;20472;-81
2021/06/11 02:00:44;;;;;;;9.50;6.55;;;;;;;15.51;100.00;95795.72;997841;29;20029;-80
2021/06/11 02:01:17;;;;;;;9.10;6.57;;;;;;;15.62;100.00;95803.13;997396;29;20029;-83
2021/06/11 02:01:47;;;;;;;7.70;6.90;;;;;;;15.55;100.00;95798.81;1001794;29;20010;-82
2021/06/11 02:02:19;;;;;;;7.80;7.00;;;;;;;15.51;100.00;95793.06;1005114;29;20579;-82
2021/06/11 02:02:50;;;;;;;8.38;6.93;;;;;;;15.49;100.00;95780.94;1001663;29;20097;-82
2021/06/11 02:03:22;;;;;;;9.05;7.10;;;;;;;15.65;100.00;95797.31;1001597;29;20018;-80
2021/06/11 02:03:53;;;;;;;9.13;6.75;;;;;;;15.51;100.00;95779.69;997468;29;20042;-82
2021/06/11 02:04:23;;;;;;;8.90;6.68;;;;;;;15.58;100.00;95801.88;1001256;29;20109;-81
2021/06/11 02:04:54;;;;;;;7.93;6.30;;;;;;;15.57;100.00;95794.91;997757;29;20082;-80
2021/06/11 02:05:25;;;;;;;8.00;6.50;;;;;;;15.44;100.00;95785.03;997611;29;20022;-81
2021/06/11 02:05:55;;;;;;;8.32;6.70;;;;;;;15.50;100.00;95795.94;997540;29;20034;-80
2021/06/11 02:06:26;;;;;;;7.43;6.47;;;;;;;15.54;100.00;95795.31;1005442;29;20545;-80
2021/06/11 02:06:57;;;;;;;10.00;6.38;;;;;;;15.42;100.00;95781.75;1005086;29;20014;-79
2021/06/11 02:07:28;;;;;;;8.73;6.63;;;;;;;15.46;100.00;95783.00;1005197;29;20079;-83
2021/06/11 02:07:58;;;;;;;7.50;6.53;;;;;;;15.42;100.00;95775.59;997483;29;20053;-81
2021/06/11 02:08:29;;;;;;;8.95;6.00;;;;;;;15.44;100.00;95785.03;1009012;29;20134;-79
2021/06/11 02:08:59;;;;;;;8.50;6.90;;;;;;;15.54;100.00;95797.19;1001079;29;20053;-79
2021/06/11 02:09:30;;;;;;;11.90;7.88;;;;;;;15.41;100.00;95779.28;1000958;29;20085;-80
2021/06/11 02:10:01;;;;;;;10.02;6.72;;;;;;;15.41;100.00;95780.13;1004730;29;20033;-82
2021/06/11 02:10:32;;;;;;;9.20;6.75;;;;;;;15.37;100.00;95767.38;1001354;29;20037;-80
2021/06/11 02:11:02;;;;;;;9.50;6.97;;;;;;;15.43;100.00;95786.09;997992;29;20465;-81
2021/06/11 02:11:34;;;;;;;7.45;6.65;;;;;;;15.46;100.00;95793.72;1005035;29;20021;-81
2021/06/11 02:12:05;;;;;;;9.50;6.40;;;;;;;15.47;100.00;95791.84;1004851;29;20013;-80
2021/06/11 02:12:37;;;;;;;9.63;7.25;;;;;;;15.40;100.00;95780.34;1008519;29;20487;-80
2021/06/11 02:13:08;;;;;;;9.40;6.70;;;;;;;15.42;100.00;95788.97;1001038;29;20080;-79
2021/06/11 02:13:40;;;;;;;8.98;6.45;;;;;;;15.43;100.00;95787.94;1004506;29;20464;-80
2021/06/11 02:14:11;;;;;;;8.88;7.70;;;;;;;15.41;100.00;95792.66;997187;29;20050;-82
2021/06/11 02:14:42;;;;;;;7.60;6.60;;;;;;;15.26;100.00;95761.63;993344;29;20449;-80
2021/06/11 02:15:13;;;;;;;7.75;6.90;;;;;;;15.46;100.00;95788.34;993324;29;20027;-80
2021/06/11 02:15:43;;;;;;;7.75;6.53;;;;;;;15.45;100.00;95788.56;1001312;29;20029;-80
2021/06/11 02:16:15;;;;;;;8.43;6.90;;;;;;;15.33;100.00;95769.66;997717;29;20079;-80
2021/06/11 02:16:45;;;;;;;9.73;6.88;;;;;;;15.49;100.00;95792.44;1004729;29;20022;-81
2021/06/11 02:17:16;;;;;;;7.68;6.78;;;;;;;15.38;100.00;95780.53;1001263;29;20113;-80
2021/06/11 02:17:47;;;;;;;8.25;6.18;;;;;;;15.51;100.00;95795.72;997175;29;20087;-80
2021/06/11 02:18:17;;;;;;;7.50;6.43;;;;;;;15.49;100.00;95795.13;1001087;29;20029;-80
2021/06/11 02:18:48;;;;;;;7.68;6.55;;;;;;;15.44;100.00;95789.59;1005140;29;20113;-81
2021/06/11 02:19:21;;;;;;;9.15;6.45;;;;;;;15.40;100.00;95786.50;1001193;29;20066;-81
2021/06/11 02:19:51;;;;;;;8.20;6.45;;;;;;;15.43;100.00;95793.28;1004786;29;20511;-80
2021/06/11 02:20:23;;;;;;;8.63;7.07;;;;;;;15.17;100.00;95767.41;1008807;29;20028;-81
2021/06/11 02:20:54;;;;;;;8.65;6.60;;;;;;;15.33;100.00;95792.91;1001296;29;20090;-81
2021/06/11 02:21:25;;;;;;;9.98;6.88;;;;;;;15.25;100.00;95792.09;1008694;29;20025;-81
2021/06/11 02:21:56;;;;;;;8.52;6.65;;;;;;;15.15;100.00;95780.19;1009015;29;20032;-81
2021/06/11 02:22:26;;;;;;;10.63;6.60;;;;;;;15.23;100.00;95798.69;1001419;29;20048;-81
2021/06/11 02:22:57;;;;;;;8.68;6.80;;;;;;;14.89;100.00;95734.56;993597;29;20091;-80
2021/06/11 02:23:29;;;;;;;7.25;6.22;;;;;;;15.06;100.00;95766.19;1005151;29;20033;-80
2021/06/11 02:23:59;;;;;;;8.48;6.75;;;;;;;15.08;100.00;95759.63;1004841;29;20026;-80
2021/06/11 02:24:32;;;;;;;7.85;6.70;;;;;;;15.33;100.00;95788.38;997407;29;20030;-81
2021/06/11 02:25:03;;;;;;;9.35;6.78;;;;;;;15.25;100.00;95775.22;1001189;29;20030;-82
2021/06/11 02:25:34;;;;;;;9.68;6.32;;;;;;;15.41;100.00;95801.53;1000902;29;20105;-82
2021/06/11 02:26:05;;;;;;;11.68;7.60;;;;;;;15.32;100.00;95784.06;1001098;29;20423;-84
2021/06/11 02:26:36;;;;;;;7.97;6.68;;;;;;;15.19;100.00;95760.84;1001158;29;20163;-82
2021/06/11 02:27:07;;;;;;;12.77;7.22;;;;;;;15.22;100.00;95773.81;997733;29;20561;-83
2021/06/11 02:27:38;;;;;;;8.57;6.07;;;;;;;15.33;100.00;95782.22;994727;29;20031;-83
2021/06/11 02:28:08;;;;;;;7.90;7.10;;;;;;;15.32;100.00;95785.91;990671;30;20109;-83